Mount Oliver, Pennsylvania
Current Conditions -  °F | °C
As of 3:53 PM on Saturday 25 Oct 2014 (Local Time) from KAGC Reporting Station
Overcast Overcast  
Wind Chill: 66°   Ceiling: 3900
Heat Index: 66°   Visibility: 10mi
Dew Point: 46°   Wind: 14mph
Humidity: 48%   Direction: 240°WSW
Pressure: 29.78"   Gusts: 24mph
Location:  40.4064°N, 79.9829°W
Report Text: KAGC 251953Z 24012G21KT 10SM OVC039 19/08 A2978 RMK AO2 PK WND 23026/1854 SLP086 T01890078
Loading
Personal Weather Stations






























Interactive Weather Map
Tropical Storm Tracking
New forecast layout! Learn more

10-Day Weather Forecast

Advertisements
Track Severe Weather on mobile